Alijilan, Argentina
Current Conditions -  °F | °C
As of 3:00 PM on Friday 28 Nov 2014 (Local Time) from SANT Reporting Station
Scattered Clouds Scattered Clouds  
Wind Chill: 93°   Ceiling: Unl
Heat Index: 101°   Visibility: 6mi
Dew Point: 72°   Wind: 9mph
Humidity: 49%   Direction: 180°S
Pressure: 29.71"   Gusts: NA
Location:  28.1°S, 65.47°W
Report Text: SANT 281800Z 18008KT 9999 SCT040 FEW05034/22 Q1006
Loading
Personal Weather Stations






























Interactive Weather Map New forecast layout! Learn more

10-Day Weather Forecast

Advertisements
Track Severe Weather on mobile